createdAt,value
2023-03-22T00:01:47.878Z,8.63
2023-03-22T00:04:14.582Z,7.65
2023-03-22T00:06:41.431Z,5.75
2023-03-22T00:09:08.100Z,8.70
2023-03-22T00:11:34.764Z,8.10
2023-03-22T00:14:01.567Z,7.60
2023-03-22T00:16:28.385Z,10.75
2023-03-22T00:18:55.277Z,8.82
2023-03-22T00:21:22.066Z,8.15
2023-03-22T00:23:48.796Z,7.57
2023-03-22T00:26:15.738Z,6.97
2023-03-22T00:28:42.839Z,8.68
2023-03-22T00:31:10.804Z,9.25
2023-03-22T00:33:38.368Z,5.93
2023-03-22T00:36:10.811Z,8.00
2023-03-22T00:38:42.938Z,8.00
2023-03-22T00:41:16.127Z,6.95
2023-03-22T00:43:46.069Z,6.55
2023-03-22T00:46:14.434Z,6.47
2023-03-22T00:48:41.250Z,9.32
2023-03-22T00:51:09.139Z,10.65
2023-03-22T00:53:39.925Z,7.95
2023-03-22T00:56:09.682Z,12.20
2023-03-22T00:58:44.567Z,8.95
2023-03-22T01:01:14.147Z,7.28
2023-03-22T01:03:42.817Z,9.25
2023-03-22T01:06:11.443Z,7.65
2023-03-22T01:08:39.187Z,7.78
2023-03-22T01:11:07.260Z,5.72
2023-03-22T01:13:37.486Z,7.97
2023-03-22T01:16:05.828Z,11.90
2023-03-22T01:18:33.578Z,6.22
2023-03-22T01:21:00.464Z,10.68
2023-03-22T01:23:27.998Z,13.32
2023-03-22T01:25:54.797Z,8.40
2023-03-22T01:28:21.568Z,9.77
2023-03-22T01:30:48.334Z,6.32
2023-03-22T01:33:15.445Z,8.85
2023-03-22T01:35:42.268Z,7.75
2023-03-22T01:38:10.115Z,13.27
2023-03-22T01:40:43.689Z,8.18
2023-03-22T01:43:15.737Z,8.43
2023-03-22T01:45:46.785Z,8.88
2023-03-22T01:48:28.091Z,7.43
2023-03-22T01:51:10.354Z,8.05
2023-03-22T01:53:55.152Z,8.70
2023-03-22T01:56:25.637Z,5.72
2023-03-22T01:58:55.040Z,8.75
2023-03-22T02:01:28.469Z,8.43
2023-03-22T02:04:08.289Z,11.20
2023-03-22T02:06:40.329Z,11.25
2023-03-22T02:09:22.146Z,8.23
2023-03-22T02:12:06.866Z,13.05
2023-03-22T02:15:10.899Z,9.52
2023-03-22T02:18:21.476Z,14.02
2023-03-22T02:23:46.588Z,11.40
2023-03-22T02:26:31.811Z,14.13
2023-03-22T02:29:27.367Z,11.60
2023-03-22T02:32:21.615Z,11.43
2023-03-22T02:35:15.790Z,10.70
2023-03-22T02:38:07.329Z,10.60
2023-03-22T02:41:01.909Z,11.15
2023-03-22T02:43:46.241Z,11.77
2023-03-22T02:46:22.877Z,12.65
2023-03-22T02:49:23.779Z,7.13
2023-03-22T02:52:25.936Z,15.35
2023-03-22T02:55:08.098Z,8.75
2023-03-22T02:57:52.792Z,12.65
2023-03-22T03:00:20.180Z,8.30
2023-03-22T03:02:55.741Z,9.55
2023-03-22T03:05:25.248Z,7.05
2023-03-22T03:07:57.276Z,8.07
2023-03-22T03:10:26.991Z,12.40
2023-03-22T03:12:53.835Z,7.55
2023-03-22T03:15:21.913Z,9.15
2023-03-22T03:18:17.334Z,9.40
2023-03-22T03:21:00.430Z,13.85
2023-03-22T03:23:31.275Z,6.57
2023-03-22T03:26:16.283Z,7.07
2023-03-22T03:29:02.040Z,8.13
2023-03-22T03:31:37.083Z,7.55
2023-03-22T03:34:15.559Z,7.35
2023-03-22T03:36:48.251Z,9.55
2023-03-22T03:39:16.532Z,9.75
2023-03-22T03:41:48.236Z,11.00
2023-03-22T03:44:16.842Z,7.53
2023-03-22T03:46:45.971Z,9.13
2023-03-22T03:49:14.139Z,7.43
2023-03-22T03:51:52.399Z,12.30
2023-03-22T03:54:20.296Z,9.57
2023-03-22T03:56:47.800Z,7.13
2023-03-22T03:59:18.800Z,8.32
2023-03-22T04:01:51.589Z,20.45
2023-03-22T04:04:29.026Z,16.75
2023-03-22T04:07:02.686Z,11.85
2023-03-22T04:09:32.816Z,9.65
2023-03-22T04:12:12.039Z,8.52
2023-03-22T04:14:38.587Z,9.77
2023-03-22T04:17:13.669Z,11.40
2023-03-22T04:19:41.356Z,8.90
2023-03-22T04:22:14.460Z,15.27
2023-03-22T04:24:41.557Z,8.32
2023-03-22T04:27:08.377Z,6.80
2023-03-22T04:29:56.545Z,7.50
2023-03-22T04:32:42.781Z,10.18
2023-03-22T04:35:10.899Z,14.50
2023-03-22T04:37:37.528Z,12.93
2023-03-22T04:40:17.403Z,10.57
2023-03-22T04:42:57.537Z,11.10
2023-03-22T04:45:35.111Z,12.38
2023-03-22T04:48:04.451Z,11.63
2023-03-22T04:50:32.320Z,11.63
2023-03-22T04:53:03.157Z,11.93
2023-03-22T04:55:30.634Z,17.33
2023-03-22T04:57:57.586Z,10.90
2023-03-22T05:00:24.351Z,14.05
2023-03-22T05:02:51.895Z,12.23
2023-03-22T05:05:31.256Z,9.20
2023-03-22T05:08:00.290Z,12.20
2023-03-22T05:10:26.937Z,10.65
2023-03-22T05:12:53.884Z,13.05
2023-03-22T05:15:23.594Z,11.20
2023-03-22T05:17:51.591Z,10.10
2023-03-22T05:20:18.196Z,12.45
2023-03-22T05:22:50.943Z,11.18
2023-03-22T05:25:19.246Z,9.82
2023-03-22T05:27:46.096Z,11.90
2023-03-22T05:30:31.668Z,13.88
2023-03-22T05:33:04.738Z,11.27
2023-03-22T05:35:38.991Z,12.18
2023-03-22T05:38:07.769Z,12.20
2023-03-22T05:40:36.600Z,10.77
2023-03-22T05:43:03.161Z,12.38
2023-03-22T05:45:32.393Z,12.30
2023-03-22T05:50:35.278Z,10.68
2023-03-22T05:53:03.413Z,15.32
2023-03-22T05:55:42.606Z,10.45
2023-03-22T05:58:10.862Z,10.30
2023-03-22T06:00:40.112Z,15.25
2023-03-22T06:03:25.632Z,11.50
2023-03-22T06:05:57.716Z,19.58
2023-03-22T06:08:38.594Z,16.75
2023-03-22T06:11:06.350Z,8.30
2023-03-22T06:13:33.190Z,10.90
2023-03-22T06:16:02.442Z,15.88
2023-03-22T06:18:30.291Z,12.90
2023-03-22T06:21:03.490Z,12.38
2023-03-22T06:25:56.516Z,8.38
2023-03-22T06:28:23.492Z,8.80
2023-03-22T06:30:53.212Z,6.70
2023-03-22T06:33:32.758Z,11.77
2023-03-22T06:36:06.244Z,14.07
2023-03-22T06:38:40.633Z,16.30
2023-03-22T06:41:07.579Z,10.40
2023-03-22T06:43:34.275Z,9.93
2023-03-22T06:46:12.464Z,16.75
2023-03-22T06:48:45.948Z,18.05
2023-03-22T06:51:15.629Z,12.02
2023-03-22T06:53:42.733Z,13.30
2023-03-22T06:56:09.972Z,8.82
2023-03-22T06:58:47.370Z,11.45
2023-03-22T07:01:13.961Z,18.88
2023-03-22T07:03:40.605Z,11.50
2023-03-22T07:06:13.442Z,15.38
2023-03-22T07:08:43.140Z,12.38
2023-03-22T07:11:12.038Z,17.75
2023-03-22T07:13:38.728Z,17.67
2023-03-22T07:16:11.197Z,11.23
2023-03-22T07:18:41.877Z,14.70
2023-03-22T07:21:09.119Z,15.35
2023-03-22T07:23:38.356Z,11.73
2023-03-22T07:26:09.278Z,11.18
2023-03-22T07:28:41.399Z,11.57
2023-03-22T07:31:11.746Z,9.48
2023-03-22T07:33:59.159Z,12.70
2023-03-22T07:36:28.393Z,10.25
2023-03-22T07:38:55.369Z,20.45
2023-03-22T07:41:30.216Z,17.13
2023-03-22T07:44:22.948Z,12.70
2023-03-22T07:47:37.813Z,14.80
2023-03-22T07:50:24.855Z,17.58
2023-03-22T07:52:55.391Z,16.77
2023-03-22T07:57:48.411Z,22.60
2023-03-22T08:02:45.394Z,14.85
2023-03-22T08:05:22.552Z,9.98
2023-03-22T08:07:56.866Z,15.75
2023-03-22T08:10:23.478Z,14.13
2023-03-22T08:12:50.277Z,10.52
2023-03-22T08:15:22.722Z,18.65
2023-03-22T08:17:49.906Z,20.13
2023-03-22T08:20:28.260Z,18.48
2023-03-22T08:22:59.220Z,19.02
2023-03-22T08:25:56.556Z,15.00
2023-03-22T08:30:51.489Z,14.57
2023-03-22T08:33:21.193Z,15.38
2023-03-22T08:35:47.713Z,18.40
2023-03-22T08:40:47.476Z,11.18
2023-03-22T08:43:17.088Z,13.23
2023-03-22T08:48:15.438Z,15.90
2023-03-22T08:51:02.467Z,9.02
2023-03-22T08:53:47.800Z,15.20
2023-03-22T08:56:43.461Z,13.13
2023-03-22T08:59:21.052Z,12.70
2023-03-22T09:02:10.732Z,10.02
2023-03-22T09:04:37.361Z,11.05
2023-03-22T09:09:30.822Z,8.95
2023-03-22T09:11:58.128Z,9.30
2023-03-22T09:14:24.747Z,8.57
2023-03-22T09:16:52.233Z,9.35
2023-03-22T09:19:19.053Z,13.70
2023-03-22T09:24:19.917Z,9.40
2023-03-22T09:26:51.528Z,8.43
2023-03-22T09:29:19.495Z,11.27
2023-03-22T09:31:48.907Z,14.70
2023-03-22T09:34:22.463Z,14.20
2023-03-22T09:36:49.709Z,8.15
2023-03-22T09:39:20.155Z,9.95
2023-03-22T09:41:55.493Z,9.93
2023-03-22T09:44:40.485Z,20.45
2023-03-22T09:47:18.156Z,5.43
2023-03-22T09:49:53.908Z,9.10
2023-03-22T09:52:20.835Z,6.90
2023-03-22T09:54:47.541Z,8.43
2023-03-22T09:57:20.353Z,6.20
2023-03-22T10:00:24.576Z,12.30
2023-03-22T10:03:05.941Z,6.82
2023-03-22T10:06:14.018Z,7.13
2023-03-22T10:09:00.701Z,7.90
2023-03-22T10:11:46.459Z,7.67
2023-03-22T10:14:32.195Z,10.93
2023-03-22T10:17:05.565Z,8.30
2023-03-22T10:19:46.855Z,9.48
2023-03-22T10:22:16.172Z,7.95
2023-03-22T10:24:47.320Z,6.03
2023-03-22T10:27:17.386Z,8.77
2023-03-22T10:29:50.961Z,12.82
2023-03-22T10:32:28.080Z,7.20
2023-03-22T10:34:54.725Z,10.52
2023-03-22T10:39:54.346Z,6.80
2023-03-22T10:42:23.763Z,6.97
2023-03-22T10:45:01.728Z,8.05
2023-03-22T10:47:49.936Z,6.53
2023-03-22T10:50:30.499Z,11.70
2023-03-22T10:53:12.360Z,4.78
2023-03-22T10:55:41.222Z,7.13
2023-03-22T10:58:19.361Z,7.95
2023-03-22T11:00:51.776Z,3.63
2023-03-22T11:03:36.370Z,5.72
2023-03-22T11:06:06.270Z,9.25
2023-03-22T11:08:47.539Z,4.80
2023-03-22T11:11:34.696Z,4.60
2023-03-22T11:14:13.250Z,6.38
2023-03-22T11:17:06.108Z,3.72
2023-03-22T11:19:35.402Z,4.70
2023-03-22T11:22:06.006Z,4.50
2023-03-22T11:24:33.974Z,11.13
2023-03-22T11:27:08.078Z,5.40
2023-03-22T11:29:46.331Z,11.02
2023-03-22T11:32:31.167Z,4.13
2023-03-22T11:35:21.249Z,8.75
2023-03-22T11:37:53.611Z,6.72
2023-03-22T11:40:24.047Z,8.20
2023-03-22T11:43:19.300Z,7.72
2023-03-22T11:45:48.226Z,5.85
2023-03-22T11:48:32.634Z,4.93
2023-03-22T11:51:06.663Z,5.95
2023-03-22T11:53:37.028Z,10.10
2023-03-22T11:56:07.479Z,4.63
2023-03-22T11:58:40.831Z,9.07
2023-03-22T12:01:21.530Z,14.93
2023-03-22T12:03:54.805Z,6.40
2023-03-22T12:06:28.981Z,7.30
2023-03-22T12:09:00.354Z,7.95
2023-03-22T12:11:33.490Z,5.20
2023-03-22T12:14:12.278Z,5.30
2023-03-22T12:16:52.540Z,10.18
2023-03-22T12:19:36.911Z,4.68
2023-03-22T12:22:11.005Z,5.22
2023-03-22T12:24:37.539Z,4.07
2023-03-22T12:29:35.777Z,4.93
2023-03-22T12:32:08.442Z,3.60
2023-03-22T12:34:41.329Z,5.00
2023-03-22T12:37:14.922Z,4.85
2023-03-22T12:39:51.394Z,5.63
2023-03-22T12:42:25.743Z,9.82
2023-03-22T12:45:05.257Z,4.13
2023-03-22T12:47:41.655Z,4.20
2023-03-22T12:50:20.443Z,4.70
2023-03-22T12:52:56.672Z,4.78
2023-03-22T12:55:28.761Z,6.93
2023-03-22T12:57:55.868Z,5.97
2023-03-22T13:00:29.925Z,5.45
2023-03-22T13:03:02.207Z,4.82
2023-03-22T13:05:32.594Z,4.22
2023-03-22T13:08:03.372Z,2.97
2023-03-22T13:10:29.796Z,3.80
2023-03-22T13:13:15.838Z,5.95
2023-03-22T13:16:09.719Z,5.50
2023-03-22T13:18:36.354Z,2.70
2023-03-22T13:21:16.508Z,5.03
2023-03-22T13:24:17.868Z,3.50
2023-03-22T13:26:47.397Z,4.07
2023-03-22T13:29:49.010Z,2.60
2023-03-22T13:32:29.908Z,4.43
2023-03-22T13:34:57.105Z,3.60
2023-03-22T13:37:34.980Z,5.15
2023-03-22T13:40:22.927Z,3.95
2023-03-22T13:42:50.673Z,4.82
2023-03-22T13:45:33.446Z,3.97
2023-03-22T13:48:29.117Z,2.42
2023-03-22T13:50:58.219Z,4.70
2023-03-22T13:53:30.518Z,6.28
2023-03-22T13:55:59.283Z,1.85
2023-03-22T13:58:36.492Z,2.30
2023-03-22T14:01:15.863Z,2.95
2023-03-22T14:03:46.064Z,2.10
2023-03-22T14:06:21.687Z,2.40
2023-03-22T14:08:53.300Z,4.85
2023-03-22T14:11:40.983Z,4.80
2023-03-22T14:14:15.851Z,2.58
2023-03-22T14:16:50.672Z,4.32
2023-03-22T14:19:29.058Z,5.32
